createdAt,value
2022-10-09T00:02:28.002Z,71.0
2022-10-09T00:07:28.864Z,71.0
2022-10-09T00:09:59.456Z,71.0
2022-10-09T00:12:40.078Z,72.0
2022-10-09T00:15:11.173Z,72.0
2022-10-09T00:17:41.772Z,72.0
2022-10-09T00:20:12.376Z,72.0
2022-10-09T00:22:42.977Z,72.0
2022-10-09T00:25:23.608Z,72.0
2022-10-09T00:27:54.214Z,72.0
2022-10-09T00:30:24.957Z,72.0
2022-10-09T00:32:55.764Z,72.0
2022-10-09T00:35:26.392Z,72.0
2022-10-09T00:37:56.996Z,72.0
2022-10-09T00:40:37.604Z,72.0
2022-10-09T00:43:08.186Z,72.0
2022-10-09T00:48:08.929Z,72.0
2022-10-09T00:50:39.526Z,72.0
2022-10-09T00:53:10.114Z,72.0
2022-10-09T00:58:20.843Z,72.0
2022-10-09T01:00:51.453Z,72.0
2022-10-09T01:03:22.117Z,72.0
2022-10-09T01:05:52.705Z,72.0
2022-10-09T01:08:23.317Z,72.0
2022-10-09T01:11:03.918Z,72.0
2022-10-09T01:13:34.520Z,72.0
2022-10-09T01:16:05.284Z,72.0
2022-10-09T01:18:39.646Z,72.0
2022-10-09T01:21:10.247Z,72.0
2022-10-09T01:23:40.841Z,72.0
2022-10-09T01:28:51.623Z,72.0
2022-10-09T01:31:22.365Z,72.0
2022-10-09T01:33:52.980Z,73.0
2022-10-09T01:36:23.582Z,73.0
2022-10-09T01:39:04.195Z,72.0
2022-10-09T01:41:34.797Z,72.0
2022-10-09T01:44:05.393Z,72.0
2022-10-09T01:46:36.082Z,73.0
2022-10-09T01:49:06.772Z,73.0
2022-10-09T01:51:37.437Z,73.0
2022-10-09T01:54:18.037Z,73.0
2022-10-09T01:56:48.613Z,73.0
2022-10-09T01:59:24.972Z,73.0
2022-10-09T02:01:55.824Z,73.0
2022-10-09T02:04:26.665Z,73.0
2022-10-09T02:09:37.410Z,73.0
2022-10-09T02:12:08.007Z,73.0
2022-10-09T02:14:38.622Z,73.0
2022-10-09T02:17:09.198Z,73.0
2022-10-09T02:19:39.782Z,73.0
2022-10-09T02:22:10.374Z,73.0
2022-10-09T02:24:50.977Z,73.0
2022-10-09T02:27:21.608Z,73.0
2022-10-09T02:29:52.215Z,73.0
2022-10-09T02:32:22.792Z,73.0
2022-10-09T02:34:53.385Z,73.0
2022-10-09T02:37:33.984Z,74.0
2022-10-09T02:40:08.399Z,74.0
2022-10-09T02:42:31.014Z,74.0
2022-10-09T02:45:01.611Z,74.0
2022-10-09T02:50:02.317Z,74.0
2022-10-09T02:52:42.913Z,74.0
2022-10-09T02:55:13.498Z,74.0
2022-10-09T02:57:44.073Z,74.0
2022-10-09T03:00:14.695Z,74.0
2022-10-09T03:02:45.548Z,74.0
2022-10-09T03:05:16.305Z,74.0
2022-10-09T03:07:57.612Z,74.0
2022-10-09T03:10:28.202Z,74.0
2022-10-09T03:12:59.167Z,74.0
2022-10-09T03:15:29.769Z,74.0
2022-10-09T03:18:00.611Z,74.0
2022-10-09T03:20:31.210Z,74.0
2022-10-09T03:23:11.798Z,74.0
2022-10-09T03:25:42.416Z,74.0
2022-10-09T03:30:53.172Z,74.0
2022-10-09T03:33:23.798Z,74.0
2022-10-09T03:35:54.385Z,74.0
2022-10-09T03:38:35.010Z,74.0
2022-10-09T03:41:05.597Z,74.0
2022-10-09T03:43:36.206Z,74.0
2022-10-09T03:46:11.229Z,74.0
2022-10-09T03:48:31.936Z,74.0
2022-10-09T03:51:12.551Z,74.0
2022-10-09T03:53:43.154Z,74.0
2022-10-09T03:56:13.719Z,74.0
2022-10-09T03:58:44.292Z,74.0
2022-10-09T04:01:15.062Z,74.0
2022-10-09T04:03:45.768Z,74.0
2022-10-09T04:06:26.356Z,74.0
2022-10-09T04:11:27.951Z,74.0
2022-10-09T04:13:58.564Z,74.0
2022-10-09T04:16:29.276Z,74.0
2022-10-09T04:18:59.962Z,74.0
2022-10-09T04:21:40.539Z,75.0
2022-10-09T04:24:11.114Z,75.0
2022-10-09T04:26:41.693Z,75.0
2022-10-09T04:29:12.302Z,75.0
2022-10-09T04:31:42.944Z,75.0
2022-10-09T04:34:13.630Z,75.0
2022-10-09T04:36:54.212Z,74.0
2022-10-09T04:39:24.801Z,74.0
2022-10-09T04:41:55.391Z,74.0
2022-10-09T04:44:35.992Z,74.0
2022-10-09T04:47:10.608Z,74.0
2022-10-09T04:52:11.974Z,74.0
2022-10-09T04:54:42.562Z,74.0
2022-10-09T04:57:13.158Z,74.0
2022-10-09T04:59:43.753Z,74.0
2022-10-09T05:02:14.408Z,74.0
2022-10-09T05:04:45.046Z,75.0
2022-10-09T05:07:25.633Z,74.0
2022-10-09T05:09:56.241Z,75.0
2022-10-09T05:12:26.849Z,75.0
2022-10-09T05:14:57.470Z,75.0
2022-10-09T05:17:32.975Z,75.0
2022-10-09T05:20:13.685Z,75.0
2022-10-09T05:22:44.261Z,75.0
2022-10-09T05:25:14.872Z,74.0
2022-10-09T05:27:45.471Z,74.0
2022-10-09T05:32:46.403Z,75.0
2022-10-09T05:35:27.193Z,75.0
2022-10-09T05:37:57.787Z,75.0
2022-10-09T05:40:29.302Z,74.0
2022-10-09T05:43:00.534Z,74.0
2022-10-09T05:45:31.174Z,74.0
2022-10-09T05:48:01.897Z,75.0
2022-10-09T05:50:42.501Z,75.0
2022-10-09T05:53:13.086Z,75.0
2022-10-09T05:55:43.707Z,74.0
2022-10-09T05:58:14.291Z,74.0
2022-10-09T06:00:44.905Z,74.0
2022-10-09T06:03:15.536Z,74.0
2022-10-09T06:05:56.099Z,74.0
2022-10-09T06:08:26.688Z,74.0
2022-10-09T06:13:27.407Z,74.0
2022-10-09T06:15:58.031Z,74.0
2022-10-09T06:18:28.641Z,74.0
2022-10-09T06:21:09.225Z,74.0
2022-10-09T06:23:39.854Z,74.0
2022-10-09T06:26:10.454Z,74.0
2022-10-09T06:28:41.163Z,73.0
2022-10-09T06:31:12.010Z,73.0
2022-10-09T06:33:52.717Z,73.0
2022-10-09T06:36:23.294Z,73.0
2022-10-09T06:38:53.904Z,73.0
2022-10-09T06:41:24.493Z,73.0
2022-10-09T06:43:55.084Z,73.0
2022-10-09T06:46:25.739Z,73.0
2022-10-09T06:49:06.383Z,73.0
2022-10-09T06:54:07.141Z,73.0
2022-10-09T06:56:37.762Z,73.0
2022-10-09T06:59:08.366Z,73.0
2022-10-09T07:01:39.103Z,72.0
2022-10-09T07:04:19.875Z,72.0
2022-10-09T07:06:50.450Z,72.0
2022-10-09T07:09:21.031Z,72.0
2022-10-09T07:11:51.627Z,72.0
2022-10-09T07:14:22.225Z,72.0
2022-10-09T07:16:52.807Z,72.0
2022-10-09T07:19:43.398Z,72.0
2022-10-09T07:22:13.958Z,71.0
2022-10-09T07:24:37.547Z,71.0
2022-10-09T07:27:08.158Z,71.0
2022-10-09T07:29:38.751Z,71.0
2022-10-09T07:34:49.508Z,71.0
2022-10-09T07:37:20.119Z,71.0
2022-10-09T07:39:55.014Z,71.0
2022-10-09T07:42:25.649Z,71.0
2022-10-09T07:44:56.255Z,71.0
2022-10-09T07:47:36.870Z,71.0
2022-10-09T07:50:07.475Z,71.0
2022-10-09T07:52:38.060Z,71.0
2022-10-09T07:55:08.954Z,70.0
2022-10-09T07:57:39.532Z,70.0
2022-10-09T08:00:10.140Z,70.0
2022-10-09T08:02:51.079Z,70.0
2022-10-09T08:05:21.974Z,70.0
2022-10-09T08:07:52.542Z,70.0
2022-10-09T08:10:23.164Z,70.0
2022-10-09T08:15:23.952Z,70.0
2022-10-09T08:18:04.610Z,70.0
2022-10-09T08:20:35.201Z,70.0
2022-10-09T08:23:05.802Z,70.0
2022-10-09T08:25:36.461Z,69.0
2022-10-09T08:28:07.100Z,69.0
2022-10-09T08:30:47.759Z,69.0
2022-10-09T08:33:18.494Z,69.0
2022-10-09T08:35:49.082Z,69.0
2022-10-09T08:38:45.927Z,69.0
2022-10-09T08:40:58.186Z,68.0
2022-10-09T08:43:28.912Z,68.0
2022-10-09T08:46:09.575Z,68.0
2022-10-09T08:48:31.362Z,68.0
2022-10-09T08:51:01.959Z,68.0
2022-10-09T08:56:02.708Z,68.0
2022-10-09T08:58:43.302Z,68.0
2022-10-09T09:01:24.035Z,67.0
2022-10-09T09:03:54.690Z,67.0
2022-10-09T09:06:25.280Z,66.0
2022-10-09T09:08:55.884Z,66.0
2022-10-09T09:13:56.655Z,66.0
2022-10-09T09:16:37.389Z,66.0
2022-10-09T09:19:07.973Z,66.0
2022-10-09T09:21:38.563Z,66.0
2022-10-09T09:24:09.177Z,66.0
2022-10-09T09:26:39.767Z,65.0
2022-10-09T09:29:20.375Z,65.0
2022-10-09T09:31:51.036Z,65.0
2022-10-09T09:36:51.808Z,65.0
2022-10-09T09:40:37.062Z,65.0
2022-10-09T09:41:47.975Z,65.0
2022-10-09T09:44:28.586Z,65.0
2022-10-09T09:46:59.387Z,65.0
2022-10-09T09:49:30.049Z,65.0
2022-10-09T09:52:00.649Z,65.0
2022-10-09T09:54:31.240Z,65.0
2022-10-09T09:57:22.490Z,65.0
2022-10-09T09:59:43.124Z,65.0
2022-10-09T10:02:13.973Z,64.0
2022-10-09T10:04:44.781Z,64.0
2022-10-09T10:07:15.365Z,64.0
2022-10-09T10:09:45.993Z,64.0
2022-10-09T10:12:16.585Z,64.0
2022-10-09T10:17:37.359Z,64.0
2022-10-09T10:20:07.961Z,64.0
2022-10-09T10:22:38.727Z,64.0
2022-10-09T10:25:10.550Z,64.0
2022-10-09T10:27:33.295Z,64.0
2022-10-09T10:30:13.910Z,63.0
2022-10-09T10:32:44.495Z,63.0
2022-10-09T10:35:15.109Z,63.0
2022-10-09T10:37:45.732Z,63.0
2022-10-09T10:40:16.369Z,63.0
2022-10-09T10:45:27.121Z,63.0
2022-10-09T10:47:58.104Z,63.0
2022-10-09T10:50:28.736Z,63.0
2022-10-09T10:52:59.676Z,63.0
2022-10-09T10:58:10.446Z,63.0
2022-10-09T11:00:41.126Z,62.0
2022-10-09T11:03:11.952Z,62.0
2022-10-09T11:05:42.701Z,62.0
2022-10-09T11:08:13.286Z,62.0
2022-10-09T11:10:43.895Z,62.0
2022-10-09T11:13:34.534Z,62.0
2022-10-09T11:16:05.288Z,62.0
2022-10-09T11:18:36.022Z,62.0
2022-10-09T11:21:06.585Z,62.0
2022-10-09T11:23:37.703Z,62.0
2022-10-09T11:26:08.305Z,62.0
2022-10-09T11:28:49.058Z,62.0
2022-10-09T11:31:19.908Z,62.0
2022-10-09T11:33:50.677Z,62.0
2022-10-09T11:38:51.417Z,62.0
2022-10-09T11:41:22.016Z,62.0
2022-10-09T11:44:02.613Z,62.0
2022-10-09T11:46:33.205Z,62.0
2022-10-09T11:49:03.790Z,62.0
2022-10-09T11:51:34.395Z,62.0
2022-10-09T11:54:05.003Z,62.0
2022-10-09T11:56:45.625Z,62.0
2022-10-09T11:59:16.219Z,62.0
2022-10-09T12:01:46.851Z,62.0
2022-10-09T12:04:23.820Z,62.0
2022-10-09T12:06:44.338Z,62.0
2022-10-09T12:09:14.935Z,62.0
2022-10-09T12:11:55.524Z,62.0
2022-10-09T12:14:30.330Z,62.0
2022-10-09T12:19:31.076Z,62.0
2022-10-09T12:22:01.624Z,62.0
2022-10-09T12:24:32.220Z,62.0
2022-10-09T12:27:12.813Z,63.0
2022-10-09T12:29:43.405Z,63.0
2022-10-09T12:32:13.991Z,62.0
2022-10-09T12:34:44.594Z,62.0
2022-10-09T12:37:15.233Z,62.0
2022-10-09T12:39:45.938Z,62.0
2022-10-09T12:42:26.646Z,62.0
2022-10-09T12:44:57.829Z,63.0
2022-10-09T12:47:28.402Z,63.0
2022-10-09T12:49:59.026Z,62.0
2022-10-09T12:52:29.624Z,63.0
2022-10-09T12:55:00.212Z,63.0
2022-10-09T13:00:10.980Z,63.0
2022-10-09T13:02:42.022Z,63.0
2022-10-09T13:05:13.099Z,63.0
2022-10-09T13:07:47.762Z,63.0
2022-10-09T13:10:28.985Z,62.0
2022-10-09T13:12:59.912Z,63.0
2022-10-09T13:15:30.525Z,62.0
2022-10-09T13:18:01.729Z,63.0
2022-10-09T13:20:32.313Z,62.0
2022-10-09T13:23:03.215Z,63.0
2022-10-09T13:25:43.813Z,63.0
2022-10-09T13:28:14.508Z,62.0
2022-10-09T13:30:45.331Z,62.0
2022-10-09T13:33:16.029Z,63.0
2022-10-09T13:35:46.610Z,62.0
2022-10-09T13:40:57.365Z,63.0
2022-10-09T13:43:27.977Z,63.0
2022-10-09T13:45:58.746Z,62.0
2022-10-09T13:48:29.489Z,62.0
2022-10-09T13:51:00.098Z,62.0
2022-10-09T13:53:40.717Z,62.0
2022-10-09T13:56:11.561Z,62.0
2022-10-09T13:58:42.296Z,62.0
2022-10-09T14:01:13.157Z,62.0
2022-10-09T14:03:43.887Z,63.0
2022-10-09T14:06:14.510Z,63.0
2022-10-09T14:08:55.162Z,63.0
2022-10-09T14:11:25.750Z,63.0
2022-10-09T14:13:56.382Z,63.0
2022-10-09T14:16:26.986Z,63.0
2022-10-09T14:21:27.722Z,63.0
2022-10-09T14:24:08.320Z,63.0
2022-10-09T14:26:38.934Z,63.0
2022-10-09T14:29:12.230Z,63.0
2022-10-09T14:31:42.819Z,64.0
2022-10-09T14:34:13.381Z,64.0
2022-10-09T14:36:43.940Z,64.0
2022-10-09T14:39:24.537Z,64.0
2022-10-09T14:41:55.148Z,64.0
2022-10-09T14:44:25.738Z,64.0
2022-10-09T14:46:56.330Z,64.0
2022-10-09T14:49:26.944Z,64.0
2022-10-09T14:51:57.587Z,64.0
2022-10-09T14:54:38.218Z,64.0
2022-10-09T14:57:08.790Z,64.0
2022-10-09T15:02:09.563Z,64.0
2022-10-09T15:04:40.159Z,64.0
2022-10-09T15:07:20.751Z,64.0
2022-10-09T15:09:51.340Z,64.0
2022-10-09T15:12:21.923Z,64.0
2022-10-09T15:14:52.518Z,64.0
2022-10-09T15:17:23.113Z,64.0
2022-10-09T15:19:53.711Z,64.0
2022-10-09T15:22:34.286Z,65.0
2022-10-09T15:25:04.891Z,65.0
2022-10-09T15:27:35.488Z,65.0
2022-10-09T15:30:06.101Z,65.0
2022-10-09T15:32:36.688Z,65.0
2022-10-09T15:35:07.275Z,65.0
2022-10-09T15:37:48.600Z,65.0
2022-10-09T15:42:51.402Z,65.0
2022-10-09T15:45:22.109Z,65.0
2022-10-09T15:48:01.292Z,65.0
2022-10-09T15:50:21.876Z,65.0
2022-10-09T15:53:02.745Z,66.0
2022-10-09T15:55:33.349Z,66.0
2022-10-09T15:58:03.929Z,66.0
2022-10-09T16:00:34.533Z,66.0
2022-10-09T16:03:05.122Z,66.0
2022-10-09T16:05:45.746Z,66.0
2022-10-09T16:08:16.341Z,66.0
2022-10-09T16:10:48.949Z,66.0
2022-10-09T16:13:19.948Z,65.0
2022-10-09T16:15:50.547Z,66.0
2022-10-09T16:18:21.165Z,66.0
2022-10-09T16:23:31.920Z,66.0
2022-10-09T16:26:02.547Z,66.0
2022-10-09T16:28:33.256Z,66.0
2022-10-09T16:31:04.030Z,66.0
2022-10-09T16:33:34.603Z,66.0
2022-10-09T16:36:15.167Z,66.0
2022-10-09T16:38:45.760Z,66.0
2022-10-09T16:41:16.356Z,66.0
2022-10-09T16:43:46.971Z,66.0
2022-10-09T16:46:17.527Z,66.0
2022-10-09T16:48:48.227Z,66.0
2022-10-09T16:51:28.837Z,66.0
2022-10-09T16:53:59.451Z,66.0
2022-10-09T16:56:30.051Z,66.0
2022-10-09T16:59:00.663Z,66.0
2022-10-09T17:04:11.442Z,66.0
2022-10-09T17:06:42.043Z,66.0
2022-10-09T17:09:13.655Z,66.0
2022-10-09T17:11:44.645Z,66.0
2022-10-09T17:14:15.238Z,66.0
2022-10-09T17:16:45.847Z,66.0
2022-10-09T17:19:26.475Z,66.0
2022-10-09T17:21:57.052Z,66.0
2022-10-09T17:24:27.671Z,66.0
2022-10-09T17:26:58.266Z,66.0
2022-10-09T17:29:28.880Z,66.0
2022-10-09T17:32:09.477Z,67.0
2022-10-09T17:34:50.086Z,67.0
2022-10-09T17:37:20.682Z,67.0
2022-10-09T17:39:54.931Z,67.0
2022-10-09T17:44:45.660Z,67.0
2022-10-09T17:47:16.251Z,67.0
2022-10-09T17:49:56.850Z,67.0
2022-10-09T17:52:27.455Z,67.0
2022-10-09T17:54:58.054Z,67.0
2022-10-09T17:57:28.645Z,67.0
2022-10-09T17:59:59.244Z,67.0
2022-10-09T18:02:29.818Z,67.0
2022-10-09T18:05:10.412Z,67.0
2022-10-09T18:07:41.068Z,67.0
2022-10-09T18:10:12.285Z,67.0
2022-10-09T18:12:42.873Z,67.0
2022-10-09T18:15:13.450Z,67.0
2022-10-09T18:17:44.037Z,67.0
2022-10-09T18:20:24.637Z,67.0
2022-10-09T18:25:35.364Z,67.0
2022-10-09T18:28:06.040Z,67.0
2022-10-09T18:30:36.856Z,67.0
2022-10-09T18:33:17.443Z,67.0
2022-10-09T18:35:48.010Z,67.0
2022-10-09T18:38:18.606Z,67.0
2022-10-09T18:40:55.360Z,67.0
2022-10-09T18:43:15.926Z,67.0
2022-10-09T18:45:46.533Z,67.0
2022-10-09T18:48:27.192Z,67.0
2022-10-09T18:50:57.778Z,67.0
2022-10-09T18:53:28.399Z,67.0
2022-10-09T18:55:58.990Z,67.0
2022-10-09T18:58:29.602Z,67.0
2022-10-09T19:01:02.463Z,67.0
2022-10-09T19:06:15.273Z,67.0
2022-10-09T19:08:45.975Z,67.0
2022-10-09T19:11:16.553Z,67.0
2022-10-09T19:13:47.169Z,67.0
2022-10-09T19:16:17.791Z,67.0
2022-10-09T19:18:58.373Z,67.0
2022-10-09T19:21:28.941Z,67.0
2022-10-09T19:23:59.543Z,67.0
2022-10-09T19:26:30.130Z,67.0
2022-10-09T19:29:00.751Z,67.0
2022-10-09T19:31:41.362Z,67.0
2022-10-09T19:34:11.957Z,67.0
2022-10-09T19:36:42.566Z,67.0
2022-10-09T19:39:13.246Z,67.0
2022-10-09T19:41:43.831Z,67.0
2022-10-09T19:46:54.574Z,67.0
2022-10-09T19:49:25.198Z,67.0
2022-10-09T19:51:55.780Z,67.0
2022-10-09T19:54:26.380Z,67.0
2022-10-09T19:56:56.948Z,67.0
2022-10-09T19:59:27.550Z,67.0
2022-10-09T20:02:08.200Z,67.0
2022-10-09T20:04:38.793Z,67.0
2022-10-09T20:07:12.619Z,67.0
2022-10-09T20:09:43.417Z,67.0
2022-10-09T20:12:14.007Z,67.0
2022-10-09T20:14:44.614Z,67.0
2022-10-09T20:17:25.235Z,67.0
2022-10-09T20:19:56.085Z,67.0
2022-10-09T20:22:26.654Z,66.0
2022-10-09T20:27:27.408Z,67.0
2022-10-09T20:29:58.019Z,67.0
2022-10-09T20:32:38.613Z,67.0
2022-10-09T20:35:09.569Z,67.0
2022-10-09T20:37:40.142Z,67.0
2022-10-09T20:40:10.749Z,67.0
2022-10-09T20:42:41.403Z,67.0
2022-10-09T20:45:22.354Z,68.0
2022-10-09T20:47:52.932Z,68.0
2022-10-09T20:50:23.536Z,68.0
2022-10-09T20:52:54.141Z,68.0
2022-10-09T20:55:24.746Z,68.0
2022-10-09T20:57:55.338Z,68.0
2022-10-09T21:00:35.950Z,68.0
2022-10-09T21:03:09.301Z,68.0
2022-10-09T21:08:12.362Z,68.0
2022-10-09T21:10:42.964Z,68.0
2022-10-09T21:13:13.534Z,67.0
2022-10-09T21:15:54.171Z,67.0
2022-10-09T21:18:24.799Z,67.0
2022-10-09T21:20:55.370Z,67.0
2022-10-09T21:23:25.960Z,67.0
2022-10-09T21:25:56.529Z,67.0
2022-10-09T21:28:27.234Z,67.0
2022-10-09T21:31:07.923Z,67.0
2022-10-09T21:33:38.511Z,67.0
2022-10-09T21:36:09.086Z,67.0
2022-10-09T21:38:39.693Z,67.0
2022-10-09T21:41:10.289Z,67.0
2022-10-09T21:43:40.897Z,67.0
2022-10-09T21:48:51.637Z,67.0
2022-10-09T21:51:27.820Z,67.0
2022-10-09T21:53:58.430Z,68.0
2022-10-09T21:56:28.991Z,68.0
2022-10-09T21:59:09.593Z,68.0
2022-10-09T22:01:40.335Z,68.0
2022-10-09T22:04:10.993Z,68.0
2022-10-09T22:06:41.612Z,68.0
2022-10-09T22:09:12.264Z,68.0
2022-10-09T22:11:42.843Z,68.0
2022-10-09T22:14:23.470Z,68.0
2022-10-09T22:16:54.048Z,68.0
2022-10-09T22:19:24.640Z,68.0
2022-10-09T22:21:55.237Z,68.0
2022-10-09T22:24:29.026Z,68.0
2022-10-09T22:29:39.975Z,67.0
2022-10-09T22:32:10.567Z,68.0
2022-10-09T22:34:41.129Z,68.0
2022-10-09T22:37:11.710Z,68.0
2022-10-09T22:39:42.302Z,68.0
2022-10-09T22:42:12.899Z,68.0
2022-10-09T22:44:53.526Z,68.0
2022-10-09T22:47:24.088Z,68.0
2022-10-09T22:49:54.683Z,68.0
2022-10-09T22:52:25.278Z,68.0
2022-10-09T22:54:55.881Z,68.0
2022-10-09T22:57:26.474Z,68.0
2022-10-09T23:00:07.073Z,68.0
2022-10-09T23:02:37.651Z,68.0
2022-10-09T23:05:08.769Z,68.0
2022-10-09T23:10:09.519Z,68.0
2022-10-09T23:12:40.080Z,68.0
2022-10-09T23:15:21.049Z,68.0
2022-10-09T23:17:51.623Z,68.0
2022-10-09T23:20:22.222Z,68.0
2022-10-09T23:22:53.003Z,68.0
2022-10-09T23:25:23.712Z,68.0
2022-10-09T23:28:04.353Z,68.0
2022-10-09T23:30:34.999Z,68.0
2022-10-09T23:33:05.587Z,68.0
2022-10-09T23:35:36.164Z,68.0
2022-10-09T23:38:06.781Z,68.0
2022-10-09T23:40:37.349Z,68.0
2022-10-09T23:43:17.969Z,68.0
2022-10-09T23:45:48.567Z,68.0
2022-10-09T23:50:49.290Z,68.0
2022-10-09T23:53:19.877Z,68.0
2022-10-09T23:55:50.474Z,68.0
2022-10-09T23:58:31.447Z,68.0
